createdAt,value
2018-10-11T00:01:58.993Z,16.93
2018-10-11T00:04:27.588Z,18.43
2018-10-11T00:06:56.169Z,18.40
2018-10-11T00:09:25.493Z,18.47
2018-10-11T00:11:54.024Z,18.13
2018-10-11T00:14:22.484Z,17.33
2018-10-11T00:16:51.071Z,17.87
2018-10-11T00:19:19.764Z,17.17
2018-10-11T00:21:48.321Z,17.33
2018-10-11T00:24:16.913Z,17.97
2018-10-11T00:26:45.459Z,16.53
2018-10-11T00:29:14.081Z,18.77
2018-10-11T00:31:42.665Z,17.63
2018-10-11T00:34:11.208Z,17.87
2018-10-11T00:36:39.644Z,16.90
2018-10-11T00:39:09.401Z,17.73
2018-10-11T00:41:38.113Z,17.10
2018-10-11T00:44:06.594Z,17.40
2018-10-11T00:46:35.034Z,17.47
2018-10-11T00:49:03.592Z,16.73
2018-10-11T00:51:32.077Z,15.87
2018-10-11T00:54:00.545Z,17.53
2018-10-11T00:56:29.412Z,17.03
2018-10-11T00:58:58.036Z,16.50
2018-10-11T01:01:26.988Z,17.87
2018-10-11T01:03:56.271Z,17.47
2018-10-11T01:06:24.805Z,17.33
2018-10-11T01:08:54.418Z,17.43
2018-10-11T01:11:22.978Z,17.17
2018-10-11T01:13:51.686Z,17.10
2018-10-11T01:16:21.004Z,16.90
2018-10-11T01:18:49.432Z,17.77
2018-10-11T01:21:18.224Z,15.77
2018-10-11T01:23:46.726Z,17.33
2018-10-11T01:26:15.276Z,16.23
2018-10-11T01:28:43.707Z,17.07
2018-10-11T01:31:17.728Z,16.53
2018-10-11T01:33:46.184Z,17.00
2018-10-11T01:36:14.633Z,15.77
2018-10-11T01:38:43.498Z,17.00
2018-10-11T01:41:12.835Z,19.30
2018-10-11T01:43:41.318Z,16.97
2018-10-11T01:46:09.808Z,15.70
2018-10-11T01:48:38.960Z,17.67
2018-10-11T01:51:07.578Z,15.67
2018-10-11T01:53:36.228Z,16.30
2018-10-11T01:56:05.222Z,16.40
2018-10-11T01:58:33.664Z,15.37
2018-10-11T02:01:02.226Z,15.33
2018-10-11T02:03:30.772Z,16.63
2018-10-11T02:05:59.241Z,16.27
2018-10-11T02:08:27.780Z,16.67
2018-10-11T02:10:56.278Z,16.40
2018-10-11T02:13:24.701Z,16.47
2018-10-11T02:15:53.177Z,15.97
2018-10-11T02:18:21.601Z,16.20
2018-10-11T02:20:50.025Z,17.10
2018-10-11T02:23:18.630Z,16.57
2018-10-11T02:25:47.905Z,16.37
2018-10-11T02:28:17.208Z,17.23
2018-10-11T02:30:46.377Z,17.07
2018-10-11T02:33:14.924Z,17.40
2018-10-11T02:35:43.484Z,17.17
2018-10-11T02:38:12.485Z,17.43
2018-10-11T02:40:40.929Z,17.17
2018-10-11T02:43:10.028Z,17.73
2018-10-11T02:45:38.497Z,16.90
2018-10-11T02:48:07.622Z,16.93
2018-10-11T02:50:36.173Z,17.20
2018-10-11T02:53:04.644Z,16.23
2018-10-11T02:55:33.278Z,16.20
2018-10-11T02:58:12.855Z,16.57
2018-10-11T03:00:41.419Z,17.37
2018-10-11T03:03:11.771Z,17.10
2018-10-11T03:05:43.267Z,15.73
2018-10-11T03:08:15.822Z,16.53
2018-10-11T03:10:45.426Z,16.37
2018-10-11T03:13:14.849Z,17.60
2018-10-11T03:15:44.138Z,16.43
2018-10-11T03:18:13.432Z,16.70
2018-10-11T03:20:42.974Z,16.60
2018-10-11T03:23:12.327Z,17.33
2018-10-11T03:25:42.121Z,16.93
2018-10-11T03:28:12.383Z,16.63
2018-10-11T03:30:41.333Z,16.57
2018-10-11T03:33:10.068Z,17.77
2018-10-11T03:35:38.537Z,17.30
2018-10-11T03:38:07.136Z,18.60
2018-10-11T03:40:35.693Z,25.90
2018-10-11T03:43:04.274Z,20.23
2018-10-11T03:45:32.716Z,17.67
2018-10-11T03:48:01.692Z,18.63
2018-10-11T03:50:30.233Z,17.57
2018-10-11T03:52:59.459Z,17.97
2018-10-11T03:55:30.328Z,18.37
2018-10-11T03:57:59.097Z,18.03
2018-10-11T04:00:27.674Z,17.97
2018-10-11T04:02:57.049Z,18.73
2018-10-11T04:05:25.817Z,16.90
2018-10-11T04:07:54.329Z,18.00
2018-10-11T04:10:23.382Z,18.87
2018-10-11T04:12:52.390Z,18.83
2018-10-11T04:15:20.895Z,20.80
2018-10-11T04:17:49.294Z,19.70
2018-10-11T04:20:17.900Z,18.12
2018-10-11T04:22:46.694Z,20.43
2018-10-11T04:25:15.237Z,21.50
2018-10-11T04:27:43.951Z,19.00
2018-10-11T04:30:12.535Z,19.53
2018-10-11T04:32:40.970Z,20.50
2018-10-11T04:35:09.591Z,19.37
2018-10-11T04:37:38.197Z,19.70
2018-10-11T04:40:06.897Z,19.80
2018-10-11T04:42:36.433Z,21.87
2018-10-11T04:45:05.167Z,19.43
2018-10-11T04:47:33.743Z,20.23
2018-10-11T04:50:02.312Z,20.27
2018-10-11T04:52:30.728Z,19.37
2018-10-11T04:54:59.310Z,20.20
2018-10-11T04:57:27.773Z,23.00
2018-10-11T04:59:56.925Z,20.50
2018-10-11T05:02:25.621Z,18.93
2018-10-11T05:04:54.367Z,19.07
2018-10-11T05:07:22.972Z,18.67
2018-10-11T05:09:51.589Z,18.27
2018-10-11T05:12:20.127Z,19.57
2018-10-11T05:14:48.648Z,23.90
2018-10-11T05:17:17.286Z,19.53
2018-10-11T05:19:45.778Z,19.33
2018-10-11T05:22:14.433Z,17.90
2018-10-11T05:24:43.133Z,20.87
2018-10-11T05:27:11.756Z,19.83
2018-10-11T05:29:40.316Z,19.00
2018-10-11T05:32:08.972Z,19.33
2018-10-11T05:34:37.469Z,20.03
2018-10-11T05:37:05.977Z,19.23
2018-10-11T05:39:34.583Z,18.93
2018-10-11T05:42:03.130Z,18.30
2018-10-11T05:44:31.794Z,18.73
2018-10-11T05:47:00.397Z,19.20
2018-10-11T05:49:29.271Z,19.70
2018-10-11T05:51:58.563Z,19.07
2018-10-11T05:54:27.096Z,19.27
2018-10-11T05:56:55.877Z,21.27
2018-10-11T05:59:25.150Z,18.60
2018-10-11T06:01:53.730Z,21.93
2018-10-11T06:04:22.419Z,20.37
2018-10-11T06:06:50.896Z,20.57
2018-10-11T06:09:19.784Z,20.00
2018-10-11T06:11:49.044Z,20.37
2018-10-11T06:14:17.497Z,19.57
2018-10-11T06:16:45.977Z,19.17
2018-10-11T06:19:15.613Z,19.90
2018-10-11T06:21:44.489Z,19.20
2018-10-11T06:24:13.154Z,18.83
2018-10-11T06:26:42.273Z,20.83
2018-10-11T06:29:11.948Z,19.43
2018-10-11T06:31:40.715Z,21.03
2018-10-11T06:34:09.365Z,20.07
2018-10-11T06:36:38.463Z,19.80
2018-10-11T06:39:08.981Z,20.20
2018-10-11T06:41:37.477Z,19.93
2018-10-11T06:44:06.712Z,21.53
2018-10-11T06:46:35.577Z,20.83
2018-10-11T06:49:04.127Z,21.37
2018-10-11T06:51:32.936Z,25.10
2018-10-11T06:54:01.501Z,20.93
2018-10-11T06:56:30.241Z,21.63
2018-10-11T06:58:58.932Z,21.90
2018-10-11T07:01:27.612Z,22.50
2018-10-11T07:03:56.735Z,22.80
2018-10-11T07:06:25.454Z,22.30
2018-10-11T07:08:54.806Z,21.80
2018-10-11T07:11:23.297Z,22.10
2018-10-11T07:13:51.793Z,23.33
2018-10-11T07:16:20.672Z,23.23
2018-10-11T07:18:50.282Z,25.87
2018-10-11T07:21:19.679Z,23.13
2018-10-11T07:23:48.348Z,23.97
2018-10-11T07:26:16.906Z,22.87
2018-10-11T07:28:45.352Z,23.57
2018-10-11T07:31:14.080Z,23.07
2018-10-11T07:33:42.929Z,23.47
2018-10-11T07:36:11.569Z,25.73
2018-10-11T07:38:40.036Z,23.63
2018-10-11T07:41:09.054Z,22.80
2018-10-11T07:43:37.463Z,24.57
2018-10-11T07:46:06.231Z,24.63
2018-10-11T07:48:34.865Z,24.33
2018-10-11T07:51:04.246Z,23.30
2018-10-11T07:53:32.862Z,23.33
2018-10-11T07:56:01.725Z,24.40
2018-10-11T07:58:30.544Z,22.13
2018-10-11T08:00:59.180Z,22.83
2018-10-11T08:03:27.961Z,21.73
2018-10-11T08:05:56.435Z,22.67
2018-10-11T08:08:25.047Z,21.33
2018-10-11T08:10:53.747Z,22.27
2018-10-11T08:13:22.382Z,22.53
2018-10-11T08:15:51.396Z,21.20
2018-10-11T08:18:21.437Z,22.10
2018-10-11T08:20:51.831Z,21.77
2018-10-11T08:23:21.024Z,21.93
2018-10-11T08:25:49.939Z,21.70
2018-10-11T08:28:18.342Z,23.10
2018-10-11T08:30:47.133Z,20.10
2018-10-11T08:33:16.680Z,21.97
2018-10-11T08:35:45.112Z,22.03
2018-10-11T08:38:13.716Z,22.75
2018-10-11T08:40:42.085Z,23.20
2018-10-11T08:43:10.646Z,22.23
2018-10-11T08:45:39.205Z,23.43
2018-10-11T08:48:08.567Z,23.90
2018-10-11T08:50:37.163Z,24.13
2018-10-11T08:53:06.933Z,25.37
2018-10-11T08:55:35.554Z,22.10
2018-10-11T08:58:04.094Z,24.20
2018-10-11T09:00:32.952Z,23.87
2018-10-11T09:03:01.472Z,23.40
2018-10-11T09:05:30.206Z,24.60
2018-10-11T09:07:58.682Z,24.13
2018-10-11T09:10:37.862Z,22.52
2018-10-11T09:12:56.590Z,22.00
2018-10-11T09:15:26.448Z,23.77
2018-10-11T09:17:55.056Z,24.85
2018-10-11T09:20:30.996Z,21.97
2018-10-11T09:22:59.541Z,21.45
2018-10-11T09:25:28.127Z,21.27
2018-10-11T09:27:56.765Z,23.15
2018-10-11T09:30:26.032Z,21.47
2018-10-11T09:32:55.178Z,24.70
2018-10-11T09:35:23.640Z,23.03
2018-10-11T09:37:52.080Z,20.52
2018-10-11T09:40:20.599Z,21.57
2018-10-11T09:42:49.091Z,21.82
2018-10-11T09:45:17.761Z,19.50
2018-10-11T09:47:46.724Z,20.37
2018-10-11T09:50:15.835Z,22.83
2018-10-11T09:52:44.516Z,18.67
2018-10-11T09:55:13.217Z,18.47
2018-10-11T09:57:42.278Z,18.80
2018-10-11T10:00:16.709Z,18.05
2018-10-11T10:02:46.716Z,17.07
2018-10-11T10:05:15.914Z,19.97
2018-10-11T10:07:44.813Z,18.75
2018-10-11T10:10:13.491Z,17.63
2018-10-11T10:12:42.019Z,17.37
2018-10-11T10:15:10.642Z,20.25
2018-10-11T10:17:39.275Z,18.65
2018-10-11T10:20:08.594Z,18.57
2018-10-11T10:22:37.194Z,19.00
2018-10-11T10:25:09.881Z,18.74
2018-10-11T10:27:38.416Z,17.52
2018-10-11T10:30:13.085Z,18.34
2018-10-11T10:32:41.962Z,16.75
2018-10-11T10:35:10.570Z,18.32
2018-10-11T10:37:39.344Z,17.92
2018-10-11T10:40:07.904Z,17.45
2018-10-11T10:42:36.477Z,16.42
2018-10-11T10:45:05.539Z,20.17
2018-10-11T10:47:34.069Z,16.70
2018-10-11T10:50:03.208Z,15.88
2018-10-11T10:52:31.811Z,15.25
2018-10-11T10:55:00.317Z,17.67
2018-10-11T10:57:28.997Z,17.40
2018-10-11T10:59:57.549Z,17.07
2018-10-11T11:02:25.164Z,19.45
2018-10-11T11:04:52.694Z,15.90
2018-10-11T11:07:21.233Z,15.68
2018-10-11T11:09:49.896Z,15.43
2018-10-11T11:12:18.513Z,16.45
2018-10-11T11:14:47.246Z,14.87
2018-10-11T11:17:15.824Z,15.03
2018-10-11T11:19:45.014Z,14.73
2018-10-11T11:22:13.857Z,14.63
2018-10-11T11:24:42.421Z,15.48
2018-10-11T11:27:11.204Z,14.03
2018-10-11T11:29:39.816Z,14.40
2018-10-11T11:32:08.478Z,12.93
2018-10-11T11:34:37.092Z,13.75
2018-10-11T11:37:06.476Z,14.28
2018-10-11T11:39:35.124Z,13.68
2018-10-11T11:42:03.735Z,14.90
2018-10-11T11:44:32.338Z,16.40
2018-10-11T11:47:01.164Z,13.50
2018-10-11T11:49:30.208Z,13.68
2018-10-11T11:51:58.809Z,17.75
2018-10-11T11:54:27.242Z,24.30
2018-10-11T11:56:57.220Z,16.48
2018-10-11T11:59:25.963Z,18.62
2018-10-11T12:01:54.585Z,17.95
2018-10-11T12:04:23.175Z,14.80
2018-10-11T12:06:52.294Z,18.67
2018-10-11T12:09:20.981Z,22.35
2018-10-11T12:11:50.307Z,17.27
2018-10-11T12:14:18.878Z,18.85
2018-10-11T12:16:47.535Z,15.13
2018-10-11T12:19:15.964Z,15.60
2018-10-11T12:21:44.447Z,13.68
2018-10-11T12:24:12.964Z,14.00
2018-10-11T12:26:42.204Z,13.05
2018-10-11T12:29:11.529Z,12.88
2018-10-11T12:31:40.191Z,14.23
2018-10-11T12:34:09.761Z,13.18
2018-10-11T12:36:38.397Z,12.30
2018-10-11T12:39:08.640Z,11.75
2018-10-11T12:41:37.180Z,16.95
2018-10-11T12:44:05.885Z,14.05
2018-10-11T12:46:37.375Z,12.40
2018-10-11T12:49:03.654Z,11.73
2018-10-11T12:51:33.240Z,11.55
2018-10-11T12:54:01.847Z,15.25
2018-10-11T12:56:30.434Z,14.78
2018-10-11T12:58:58.961Z,16.35
2018-10-11T13:01:27.421Z,10.72
2018-10-11T13:03:56.654Z,11.50
2018-10-11T13:06:25.157Z,10.78
2018-10-11T13:08:53.625Z,10.93
2018-10-11T13:11:22.143Z,10.65
2018-10-11T13:13:52.819Z,11.12
2018-10-11T13:16:19.119Z,10.95
2018-10-11T13:18:47.574Z,9.85
2018-10-11T13:21:16.109Z,11.12
2018-10-11T13:23:44.697Z,11.35
2018-10-11T13:26:13.316Z,10.90
2018-10-11T13:28:41.837Z,10.88
2018-10-11T13:31:10.497Z,12.28
2018-10-11T13:33:39.677Z,11.38
2018-10-11T13:36:08.516Z,10.82
2018-10-11T13:38:37.362Z,10.25
2018-10-11T13:41:05.930Z,10.20
2018-10-11T13:43:35.120Z,14.13
2018-10-11T13:46:03.940Z,10.30
2018-10-11T13:48:32.873Z,10.28
2018-10-11T13:51:01.815Z,10.10
2018-10-11T13:53:30.684Z,9.73
2018-10-11T13:55:59.499Z,12.35
2018-10-11T13:58:27.897Z,9.55
2018-10-11T14:00:57.104Z,9.15
2018-10-11T14:03:38.150Z,9.13
2018-10-11T14:06:06.880Z,9.30
2018-10-11T14:08:35.517Z,8.20
2018-10-11T14:11:04.180Z,9.80
2018-10-11T14:13:32.666Z,8.88
2018-10-11T14:16:02.314Z,7.78
2018-10-11T14:18:30.929Z,10.88
2018-10-11T14:20:59.642Z,9.20
2018-10-11T14:23:29.034Z,10.10
2018-10-11T14:25:58.683Z,12.68
2018-10-11T14:28:27.897Z,12.95
2018-10-11T14:30:56.484Z,12.53
2018-10-11T14:33:24.985Z,10.32
2018-10-11T14:35:53.587Z,11.80
2018-10-11T14:38:22.430Z,10.58
2018-10-11T14:40:51.161Z,10.07
2018-10-11T14:43:19.863Z,11.10
2018-10-11T14:45:48.461Z,11.48
2018-10-11T14:48:17.706Z,10.88
2018-10-11T14:50:46.983Z,11.63
2018-10-11T14:53:15.612Z,11.63
2018-10-11T14:55:44.433Z,9.53
2018-10-11T14:58:13.699Z,9.70
2018-10-11T15:00:42.278Z,11.33
2018-10-11T15:03:11.776Z,11.93
2018-10-11T15:05:40.306Z,10.68
2018-10-11T15:08:09.016Z,10.78
2018-10-11T15:10:38.351Z,11.75
2018-10-11T15:13:07.201Z,10.00
2018-10-11T15:15:35.712Z,10.93
2018-10-11T15:18:04.429Z,10.32
2018-10-11T15:20:32.877Z,15.32
2018-10-11T15:23:02.271Z,9.80
2018-10-11T15:25:30.994Z,11.33
2018-10-11T15:27:59.596Z,13.68
2018-10-11T15:30:28.190Z,11.30
2018-10-11T15:32:57.037Z,11.75
2018-10-11T15:35:25.507Z,11.12
2018-10-11T15:37:54.268Z,9.55
2018-10-11T15:40:22.895Z,10.60
2018-10-11T15:42:51.357Z,13.28
2018-10-11T15:45:20.446Z,10.33
2018-10-11T15:47:49.666Z,9.40
2018-10-11T15:50:18.209Z,9.77
2018-10-11T15:52:46.772Z,8.80
2018-10-11T15:55:15.633Z,8.60
2018-10-11T15:57:44.259Z,11.57
2018-10-11T16:00:13.504Z,10.23
2018-10-11T16:02:42.666Z,9.58
2018-10-11T16:05:11.311Z,11.10
2018-10-11T16:07:40.062Z,9.63
2018-10-11T16:10:09.409Z,9.63
2018-10-11T16:12:39.309Z,9.30
2018-10-11T16:15:07.805Z,9.20
2018-10-11T16:17:36.452Z,8.28
2018-10-11T16:20:05.318Z,9.15
2018-10-11T16:22:33.887Z,10.60
2018-10-11T16:25:04.026Z,9.48
2018-10-11T16:27:32.950Z,8.65
2018-10-11T16:30:02.279Z,9.50
2018-10-11T16:32:30.833Z,9.88
2018-10-11T16:34:59.322Z,9.10
2018-10-11T16:37:28.289Z,12.80
2018-10-11T16:39:56.840Z,9.98
2018-10-11T16:42:25.589Z,8.80
2018-10-11T16:44:54.097Z,10.05
2018-10-11T16:47:22.798Z,11.48
2018-10-11T16:49:51.317Z,13.03
2018-10-11T16:52:20.493Z,10.35
2018-10-11T16:54:49.314Z,9.68
2018-10-11T16:57:17.945Z,11.18
2018-10-11T16:59:47.353Z,10.75
2018-10-11T17:02:16.134Z,9.35
2018-10-11T17:04:45.009Z,10.08
2018-10-11T17:07:14.180Z,9.60
2018-10-11T17:09:42.851Z,9.25
2018-10-11T17:12:11.397Z,9.35
2018-10-11T17:14:40.078Z,11.10
2018-10-11T17:17:08.739Z,8.40
2018-10-11T17:19:37.560Z,9.45
2018-10-11T17:22:06.246Z,11.80
2018-10-11T17:24:35.012Z,9.23
2018-10-11T17:27:03.824Z,11.60
2018-10-11T17:29:32.411Z,12.00
2018-10-11T17:32:01.012Z,9.73
2018-10-11T17:34:29.631Z,10.32
2018-10-11T17:36:58.182Z,10.65
2018-10-11T17:39:27.317Z,9.75
2018-10-11T17:41:57.076Z,13.03
2018-10-11T17:44:25.844Z,11.48
2018-10-11T17:46:54.884Z,10.45
2018-10-11T17:49:23.380Z,13.05
2018-10-11T17:51:52.176Z,10.55
2018-10-11T17:54:20.919Z,10.55
2018-10-11T17:56:49.522Z,11.53
2018-10-11T17:59:18.232Z,13.22
2018-10-11T18:01:48.016Z,10.88
2018-10-11T18:04:16.949Z,10.38
2018-10-11T18:06:45.483Z,9.95
2018-10-11T18:09:14.144Z,12.05
2018-10-11T18:11:42.830Z,12.45
2018-10-11T18:14:12.302Z,12.53
2018-10-11T18:16:41.133Z,10.93
2018-10-11T18:19:09.677Z,15.05
2018-10-11T18:21:38.549Z,16.12
2018-10-11T18:24:07.586Z,16.27
2018-10-11T18:26:37.313Z,23.62
2018-10-11T18:29:06.403Z,20.62
2018-10-11T18:31:35.291Z,16.02
2018-10-11T18:34:03.876Z,15.25
2018-10-11T18:36:32.570Z,12.45
2018-10-11T18:39:01.235Z,11.93
2018-10-11T18:41:29.894Z,12.03
2018-10-11T18:43:59.398Z,11.03
2018-10-11T18:46:28.731Z,13.88
2018-10-11T18:48:57.605Z,11.43
2018-10-11T18:51:26.400Z,14.70
2018-10-11T18:53:55.039Z,11.10
2018-10-11T18:56:23.931Z,12.13
2018-10-11T18:58:52.679Z,11.20
2018-10-11T19:01:22.059Z,13.95
2018-10-11T19:03:51.536Z,13.80
2018-10-11T19:06:20.652Z,17.35
2018-10-11T19:08:49.536Z,15.10
2018-10-11T19:11:18.715Z,14.75
2018-10-11T19:13:47.401Z,15.00
2018-10-11T19:16:16.631Z,17.42
2018-10-11T19:18:45.942Z,10.98
2018-10-11T19:21:14.843Z,20.48
2018-10-11T19:23:43.896Z,16.87
2018-10-11T19:26:13.444Z,12.43
2018-10-11T19:28:42.653Z,12.88
2018-10-11T19:31:11.860Z,11.88
2018-10-11T19:33:41.310Z,17.90
2018-10-11T19:36:10.209Z,12.97
2018-10-11T19:38:39.532Z,15.08
2018-10-11T19:41:09.050Z,13.05
2018-10-11T19:43:37.882Z,15.53
2018-10-11T19:46:06.919Z,13.88
2018-10-11T19:48:35.705Z,13.77
2018-10-11T19:51:04.499Z,13.20
2018-10-11T19:53:33.271Z,15.13
2018-10-11T19:56:02.066Z,17.60
2018-10-11T19:58:31.859Z,15.72
2018-10-11T20:01:00.768Z,15.33
2018-10-11T20:03:32.821Z,15.23
2018-10-11T20:06:01.631Z,16.85
2018-10-11T20:08:31.682Z,17.13
2018-10-11T20:11:00.493Z,17.20
2018-10-11T20:13:29.334Z,16.80
2018-10-11T20:15:58.208Z,16.12
2018-10-11T20:18:26.946Z,15.75
2018-10-11T20:20:55.776Z,16.70
2018-10-11T20:23:24.449Z,16.80
2018-10-11T20:25:53.158Z,18.42
2018-10-11T20:28:21.742Z,16.95
2018-10-11T20:30:50.438Z,17.00
2018-10-11T20:33:20.087Z,19.53
2018-10-11T20:35:49.176Z,18.83
2018-10-11T20:38:17.941Z,16.43
2018-10-11T20:40:46.528Z,16.87
2018-10-11T20:43:15.401Z,16.43
2018-10-11T20:45:44.112Z,15.30
2018-10-11T20:48:12.829Z,15.50
2018-10-11T20:50:41.686Z,19.90
2018-10-11T20:53:10.374Z,17.50
2018-10-11T20:55:39.017Z,18.50
2018-10-11T20:58:07.750Z,17.85
2018-10-11T21:00:36.711Z,17.90
2018-10-11T21:03:05.363Z,17.52
2018-10-11T21:05:34.057Z,17.73
2018-10-11T21:08:02.781Z,15.60
2018-10-11T21:10:31.381Z,18.27
2018-10-11T21:13:00.609Z,17.80
2018-10-11T21:15:29.453Z,17.10
2018-10-11T21:17:58.116Z,18.40
2018-10-11T21:20:27.040Z,17.13
2018-10-11T21:22:55.857Z,17.70
2018-10-11T21:25:24.512Z,17.17
2018-10-11T21:27:53.225Z,17.87
2018-10-11T21:30:22.282Z,18.60
2018-10-11T21:32:50.916Z,18.27
2018-10-11T21:35:19.556Z,16.23
2018-10-11T21:37:48.788Z,18.03
2018-10-11T21:40:17.338Z,18.93
2018-10-11T21:42:45.826Z,18.27
2018-10-11T21:45:14.487Z,17.50
2018-10-11T21:47:43.276Z,19.30
2018-10-11T21:50:11.949Z,18.78
2018-10-11T21:52:41.148Z,18.10
2018-10-11T21:55:09.747Z,17.53
2018-10-11T21:57:38.563Z,17.90
2018-10-11T22:00:14.572Z,18.77
2018-10-11T22:02:43.297Z,17.47
2018-10-11T22:05:11.786Z,18.20
2018-10-11T22:07:40.836Z,19.50
2018-10-11T22:10:09.953Z,19.27
2018-10-11T22:12:38.487Z,18.13
2018-10-11T22:15:07.269Z,18.60
2018-10-11T22:17:35.789Z,19.27
2018-10-11T22:20:05.348Z,21.57
2018-10-11T22:22:34.010Z,18.87
2018-10-11T22:25:03.249Z,17.70
2018-10-11T22:27:32.844Z,17.97
2018-10-11T22:30:01.446Z,18.00
2018-10-11T22:32:31.242Z,18.73
2018-10-11T22:35:00.082Z,16.60
2018-10-11T22:37:28.647Z,19.57
2018-10-11T22:39:57.779Z,17.30
2018-10-11T22:42:26.413Z,17.53
2018-10-11T22:44:55.779Z,17.83
2018-10-11T22:47:24.435Z,17.33
2018-10-11T22:49:53.410Z,17.47
2018-10-11T22:52:21.906Z,16.67
2018-10-11T22:54:50.890Z,17.20
2018-10-11T22:57:19.568Z,17.23
2018-10-11T22:59:48.148Z,15.70
2018-10-11T23:02:17.019Z,15.50
2018-10-11T23:04:45.701Z,14.80
2018-10-11T23:07:14.174Z,15.37
2018-10-11T23:09:42.838Z,13.90
2018-10-11T23:12:11.280Z,13.60
2018-10-11T23:14:40.028Z,13.80
2018-10-11T23:17:08.473Z,13.57
2018-10-11T23:19:37.037Z,13.17
2018-10-11T23:22:12.002Z,13.60
2018-10-11T23:24:41.174Z,12.93
2018-10-11T23:27:09.844Z,13.60
2018-10-11T23:29:38.300Z,16.00
2018-10-11T23:32:07.032Z,12.80
2018-10-11T23:34:35.621Z,12.97
2018-10-11T23:37:04.161Z,13.53
2018-10-11T23:39:32.841Z,13.68
2018-10-11T23:42:01.302Z,14.03
2018-10-11T23:44:29.880Z,14.20
2018-10-11T23:46:58.381Z,12.77
2018-10-11T23:49:27.335Z,13.30
2018-10-11T23:51:55.937Z,14.10
2018-10-11T23:54:24.705Z,13.40
2018-10-11T23:56:54.181Z,12.83
2018-10-11T23:59:22.756Z,13.37
